createdAt,value
2022-08-25T00:01:59.615Z,100903.06
2022-08-25T00:07:04.124Z,100895.28
2022-08-25T00:12:08.801Z,100893.63
2022-08-25T00:17:12.176Z,100892.28
2022-08-25T00:22:15.102Z,100886.19
2022-08-25T00:27:19.569Z,100880.66
2022-08-25T00:32:22.538Z,100873.81
2022-08-25T00:37:25.498Z,100875.41
2022-08-25T00:42:30.053Z,100874.69
2022-08-25T00:47:33.034Z,100865.94
2022-08-25T00:52:38.827Z,100867.66
2022-08-25T00:57:44.933Z,100857.03
2022-08-25T01:02:48.199Z,100860.88
2022-08-25T01:07:52.541Z,100855.66
2022-08-25T01:13:06.373Z,100854.66
2022-08-25T01:18:13.471Z,100850.13
2022-08-25T01:23:17.771Z,100857.41
2022-08-25T01:28:21.656Z,100850.22
2022-08-25T01:33:24.758Z,100846.63
2022-08-25T01:38:29.070Z,100858.22
2022-08-25T01:43:36.967Z,100863.19
2022-08-25T01:48:40.035Z,100858.50
2022-08-25T01:53:44.588Z,100868.00
2022-08-25T01:58:48.886Z,100868.16
2022-08-25T02:03:52.965Z,100864.66
2022-08-25T02:09:01.110Z,100860.97
2022-08-25T02:14:04.105Z,100847.72
2022-08-25T02:19:08.136Z,100844.47
2022-08-25T02:24:13.049Z,100849.00
2022-08-25T02:29:16.935Z,100843.88
2022-08-25T02:34:20.055Z,100842.25
2022-08-25T02:39:24.306Z,100841.66
2022-08-25T02:44:27.220Z,100839.94
2022-08-25T02:49:32.170Z,100848.00
2022-08-25T02:54:36.949Z,100838.25
2022-08-25T02:59:40.201Z,100865.50
2022-08-25T03:04:43.558Z,100857.13
2022-08-25T03:09:48.286Z,100855.75
2022-08-25T03:14:51.247Z,100847.63
2022-08-25T03:19:54.222Z,100845.06
2022-08-25T03:25:23.489Z,100843.38
2022-08-25T03:30:27.375Z,100845.94
2022-08-25T03:35:31.043Z,100846.03
2022-08-25T03:40:35.452Z,100848.31
2022-08-25T03:45:41.350Z,100847.47
2022-08-25T03:50:51.535Z,100845.06
2022-08-25T03:55:56.226Z,100846.03
2022-08-25T04:01:00.575Z,100850.72
2022-08-25T04:06:04.226Z,100844.47
2022-08-25T04:11:09.670Z,100849.88
2022-08-25T04:16:14.387Z,100848.84
2022-08-25T04:21:18.263Z,100835.34
2022-08-25T04:26:23.858Z,100830.31
2022-08-25T04:31:27.593Z,100825.84
2022-08-25T04:36:30.795Z,100832.69
2022-08-25T04:41:35.944Z,100827.88
2022-08-25T04:46:38.948Z,100824.38
2022-08-25T04:51:42.244Z,100827.72
2022-08-25T04:56:46.812Z,100822.25
2022-08-25T05:01:52.332Z,100820.63
2022-08-25T05:06:55.425Z,100820.63
2022-08-25T05:11:59.746Z,100816.38
2022-08-25T05:17:02.915Z,100823.34
2022-08-25T05:22:06.802Z,100819.00
2022-08-25T05:27:11.111Z,100817.88
2022-08-25T05:32:14.101Z,100811.75
2022-08-25T05:37:17.168Z,100810.38
2022-08-25T05:42:22.537Z,100811.06
2022-08-25T05:47:25.509Z,100814.38
2022-08-25T05:52:28.905Z,100809.91
2022-08-25T05:57:33.448Z,100821.09
2022-08-25T06:02:44.176Z,100809.31
2022-08-25T06:07:48.020Z,100822.97
2022-08-25T06:12:52.334Z,100815.56
2022-08-25T06:18:00.995Z,100818.53
2022-08-25T06:23:05.295Z,100825.56
2022-08-25T06:28:09.597Z,100823.00
2022-08-25T06:33:12.779Z,100818.78
2022-08-25T06:38:15.716Z,100812.75
2022-08-25T06:43:20.078Z,100818.34
2022-08-25T06:48:24.044Z,100819.38
2022-08-25T06:53:27.055Z,100816.88
2022-08-25T06:58:31.651Z,100817.00
2022-08-25T07:03:34.669Z,100817.16
2022-08-25T07:08:38.383Z,100820.56
2022-08-25T07:13:43.093Z,100814.47
2022-08-25T07:18:46.183Z,100819.81
2022-08-25T07:23:49.130Z,100826.13
2022-08-25T07:28:53.467Z,100825.34
2022-08-25T07:34:15.004Z,100835.69
2022-08-25T07:39:22.018Z,100828.16
2022-08-25T07:44:28.145Z,100835.72
2022-08-25T07:49:35.906Z,100836.19
2022-08-25T07:54:42.663Z,100837.78
2022-08-25T07:59:51.524Z,100833.53
2022-08-25T08:04:54.655Z,100825.44
2022-08-25T08:10:25.635Z,100823.53
2022-08-25T08:15:22.630Z,100825.91
2022-08-25T08:20:25.731Z,100833.91
2022-08-25T08:25:28.865Z,100837.69
2022-08-25T08:30:33.563Z,100831.41
2022-08-25T08:35:37.957Z,100824.88
2022-08-25T08:41:09.047Z,100830.09
2022-08-25T08:46:13.663Z,100824.72
2022-08-25T08:51:20.484Z,100822.28
2022-08-25T08:56:30.978Z,100828.81
2022-08-25T09:01:36.647Z,100826.22
2022-08-25T09:06:42.369Z,100823.69
2022-08-25T09:11:52.581Z,100821.16
2022-08-25T09:17:02.069Z,100815.94
2022-08-25T09:22:35.201Z,100813.03
2022-08-25T09:27:35.258Z,100811.00
2022-08-25T09:32:41.768Z,100797.41
2022-08-25T09:37:59.133Z,100789.19
2022-08-25T09:43:05.721Z,100795.34
2022-08-25T09:48:23.711Z,100787.81
2022-08-25T09:53:27.834Z,100771.81
2022-08-25T09:58:31.004Z,100755.31
2022-08-25T10:03:36.862Z,100759.63
2022-08-25T10:08:41.341Z,100755.34
2022-08-25T10:13:46.885Z,100747.88
2022-08-25T10:19:02.518Z,100741.69
2022-08-25T10:24:06.238Z,100740.38
2022-08-25T10:29:17.701Z,100741.22
2022-08-25T10:34:29.619Z,100725.69
2022-08-25T10:39:40.766Z,100720.28
2022-08-25T10:45:06.216Z,100721.41
2022-08-25T10:50:15.472Z,100719.97
2022-08-25T10:55:22.372Z,100717.22
2022-08-25T11:00:31.670Z,100709.19
2022-08-25T11:05:41.338Z,100702.72
2022-08-25T11:10:48.024Z,100695.19
2022-08-25T11:16:15.478Z,100690.06
2022-08-25T11:21:22.030Z,100692.94
2022-08-25T11:26:32.873Z,100684.41
2022-08-25T11:31:41.021Z,100664.69
2022-08-25T11:36:51.480Z,100669.72
2022-08-25T11:42:01.918Z,100673.84
2022-08-25T11:47:21.272Z,100665.84
2022-08-25T11:52:46.042Z,100665.94
2022-08-25T11:57:53.254Z,100660.53
2022-08-25T12:03:01.274Z,100672.38
2022-08-25T12:08:24.915Z,100661.56
2022-08-25T12:13:43.283Z,100658.38
2022-08-25T12:18:46.675Z,100664.81
2022-08-25T12:24:09.512Z,100659.41
2022-08-25T12:29:16.206Z,100672.63
2022-08-25T12:34:38.095Z,100665.31
2022-08-25T12:39:46.772Z,100658.41
2022-08-25T12:45:08.566Z,100665.50
2022-08-25T12:50:27.122Z,100648.81
2022-08-25T12:55:31.641Z,100628.84
2022-08-25T13:00:38.583Z,100625.19
2022-08-25T13:06:11.041Z,100620.91
2022-08-25T13:11:20.377Z,100630.34
2022-08-25T13:16:29.065Z,100624.84
2022-08-25T13:21:35.257Z,100629.00
2022-08-25T13:26:48.688Z,100638.63
2022-08-25T13:31:55.047Z,100637.47
2022-08-25T13:37:15.645Z,100634.09
2022-08-25T13:42:23.971Z,100634.41
2022-08-25T13:47:43.816Z,100634.47
2022-08-25T13:52:50.759Z,100626.22
2022-08-25T13:57:55.220Z,100625.72
2022-08-25T14:03:00.735Z,100624.31
2022-08-25T14:08:16.217Z,100624.28
2022-08-25T14:13:33.069Z,100626.59
2022-08-25T14:18:36.444Z,100626.50
2022-08-25T14:23:40.380Z,100614.16
2022-08-25T14:28:44.734Z,100623.72
2022-08-25T14:33:51.803Z,100619.38
2022-08-25T14:38:56.596Z,100623.28
2022-08-25T14:44:01.040Z,100616.94
2022-08-25T14:49:06.327Z,100623.19
2022-08-25T14:54:13.087Z,100618.38
2022-08-25T14:59:18.527Z,100617.97
2022-08-25T15:04:23.570Z,100616.59
2022-08-25T15:09:33.299Z,100616.16
2022-08-25T15:14:40.782Z,100622.78
2022-08-25T15:19:44.100Z,100625.19
2022-08-25T15:24:48.729Z,100627.75
2022-08-25T15:29:53.117Z,100629.00
2022-08-25T15:34:56.882Z,100619.53
2022-08-25T15:39:59.851Z,100626.78
2022-08-25T15:45:05.192Z,100623.25
2022-08-25T15:50:10.281Z,100621.97
2022-08-25T15:55:13.399Z,100618.25
2022-08-25T16:00:19.126Z,100616.00
2022-08-25T16:05:25.724Z,100618.25
2022-08-25T16:10:29.287Z,100622.13
2022-08-25T16:15:33.861Z,100624.19
2022-08-25T16:20:37.633Z,100621.75
2022-08-25T16:25:41.758Z,100624.09
2022-08-25T16:30:53.061Z,100619.69
2022-08-25T16:36:05.164Z,100623.25
2022-08-25T16:41:10.646Z,100627.34
2022-08-25T16:46:15.840Z,100630.84
2022-08-25T16:51:22.629Z,100624.19
2022-08-25T16:56:28.897Z,100637.59
2022-08-25T17:01:35.526Z,100636.75
2022-08-25T17:06:39.758Z,100639.59
2022-08-25T17:11:45.390Z,100634.25
2022-08-25T17:16:51.259Z,100638.25
2022-08-25T17:21:55.208Z,100636.66
2022-08-25T17:26:58.227Z,100631.56
2022-08-25T17:32:03.433Z,100641.13
2022-08-25T17:37:06.838Z,100649.41
2022-08-25T17:42:10.460Z,100641.84
2022-08-25T17:47:14.774Z,100649.63
2022-08-25T17:52:22.478Z,100659.44
2022-08-25T17:57:28.702Z,100660.03
2022-08-25T18:02:33.087Z,100665.22
2022-08-25T18:07:36.419Z,100675.41
2022-08-25T18:12:39.942Z,100662.84
2022-08-25T18:17:44.333Z,100671.59
2022-08-25T18:22:48.264Z,100667.88
2022-08-25T18:27:51.306Z,100668.72
2022-08-25T18:32:55.906Z,100669.41
2022-08-25T18:38:16.386Z,100676.28
2022-08-25T18:43:20.197Z,100674.25
2022-08-25T18:48:26.619Z,100675.66
2022-08-25T18:53:49.708Z,100678.06
2022-08-25T18:58:53.908Z,100682.38
2022-08-25T19:03:58.328Z,100688.13
2022-08-25T19:09:02.184Z,100683.97
2022-08-25T19:14:12.148Z,100677.38
2022-08-25T19:19:16.896Z,100685.38
2022-08-25T19:24:20.694Z,100678.59
2022-08-25T19:29:24.573Z,100674.44
2022-08-25T19:34:31.994Z,100680.84
2022-08-25T19:39:36.408Z,100674.13
2022-08-25T19:44:42.363Z,100677.94
2022-08-25T19:49:47.783Z,100669.41
2022-08-25T19:54:52.750Z,100666.47
2022-08-25T19:59:55.934Z,100676.66
2022-08-25T20:05:00.970Z,100670.09
2022-08-25T20:10:06.807Z,100675.94
2022-08-25T20:15:10.383Z,100682.66
2022-08-25T20:20:16.498Z,100681.38
2022-08-25T20:25:21.064Z,100680.09
2022-08-25T20:30:28.009Z,100680.78
2022-08-25T20:35:32.437Z,100682.38
2022-08-25T20:40:35.534Z,100682.19
2022-08-25T20:45:40.328Z,100689.91
2022-08-25T20:50:45.091Z,100684.44
2022-08-25T20:55:48.290Z,100683.56
2022-08-25T21:00:51.248Z,100682.25
2022-08-25T21:05:57.198Z,100677.41
2022-08-25T21:11:00.325Z,100679.72
2022-08-25T21:16:03.986Z,100689.81
2022-08-25T21:21:14.093Z,100681.66
2022-08-25T21:26:18.452Z,100678.34
2022-08-25T21:31:21.923Z,100677.34
2022-08-25T21:36:29.042Z,100683.81
2022-08-25T21:41:33.246Z,100686.94
2022-08-25T21:46:37.478Z,100689.16
2022-08-25T21:51:43.307Z,100679.06
2022-08-25T21:56:49.768Z,100686.94
2022-08-25T22:01:55.550Z,100686.56
2022-08-25T22:07:00.881Z,100683.44
2022-08-25T22:12:06.615Z,100681.16
2022-08-25T22:17:13.938Z,100672.06
2022-08-25T22:22:21.613Z,100679.44
2022-08-25T22:27:25.177Z,100668.06
2022-08-25T22:32:28.259Z,100668.28
2022-08-25T22:37:32.600Z,100652.72
2022-08-25T22:42:38.084Z,100655.03
2022-08-25T22:47:41.316Z,100655.50
2022-08-25T22:52:45.726Z,100650.38
2022-08-25T22:57:48.689Z,100641.84
2022-08-25T23:02:53.356Z,100644.19
2022-08-25T23:07:58.239Z,100645.22
2022-08-25T23:13:01.327Z,100640.38
2022-08-25T23:18:04.361Z,100641.59
2022-08-25T23:23:08.864Z,100645.00
2022-08-25T23:28:12.049Z,100635.72
2022-08-25T23:33:18.703Z,100639.75
2022-08-25T23:38:24.410Z,100643.16
2022-08-25T23:43:27.506Z,100637.00
2022-08-25T23:48:30.690Z,100642.88
2022-08-25T23:53:35.562Z,100637.03
2022-08-25T23:58:38.580Z,100630.97
